sensor_id;sensor_type;location;lat;lon;timestamp;temperature;humidity
29201;DHT22;16244;51.956;12.980;2022-09-27T00:01:47;12.40;99.90
29201;DHT22;16244;51.956;12.980;2022-09-27T00:04:14;12.40;99.90
29201;DHT22;16244;51.956;12.980;2022-09-27T00:06:41;12.40;99.90
29201;DHT22;16244;51.956;12.980;2022-09-27T00:09:09;12.40;99.90
29201;DHT22;16244;51.956;12.980;2022-09-27T00:11:37;12.40;99.90
29201;DHT22;16244;51.956;12.980;2022-09-27T00:14:05;12.40;99.90
29201;DHT22;16244;51.956;12.980;2022-09-27T00:16:36;12.40;99.90
29201;DHT22;16244;51.956;12.980;2022-09-27T00:19:06;12.50;99.90
29201;DHT22;16244;51.956;12.980;2022-09-27T00:21:33;12.50;99.90
29201;DHT22;16244;51.956;12.980;2022-09-27T00:24:01;12.50;99.90
29201;DHT22;16244;51.956;12.980;2022-09-27T00:26:28;12.50;99.90
29201;DHT22;16244;51.956;12.980;2022-09-27T00:28:56;12.50;99.90
29201;DHT22;16244;51.956;12.980;2022-09-27T00:31:24;12.50;99.90
29201;DHT22;16244;51.956;12.980;2022-09-27T00:33:56;12.50;99.90
29201;DHT22;16244;51.956;12.980;2022-09-27T00:36:25;12.50;99.90
29201;DHT22;16244;51.956;12.980;2022-09-27T00:38:53;12.50;99.90
29201;DHT22;16244;51.956;12.980;2022-09-27T00:41:22;12.50;99.90
29201;DHT22;16244;51.956;12.980;2022-09-27T00:43:52;12.50;99.90
29201;DHT22;16244;51.956;12.980;2022-09-27T00:46:24;12.40;99.90
29201;DHT22;16244;51.956;12.980;2022-09-27T00:49:02;12.40;99.90
29201;DHT22;16244;51.956;12.980;2022-09-27T00:51:32;12.40;99.90
29201;DHT22;16244;51.956;12.980;2022-09-27T00:54:00;12.30;99.90
29201;DHT22;16244;51.956;12.980;2022-09-27T00:56:29;12.40;99.90
29201;DHT22;16244;51.956;12.980;2022-09-27T00:59:01;12.40;99.90
29201;DHT22;16244;51.956;12.980;2022-09-27T01:01:29;12.40;99.90
29201;DHT22;16244;51.956;12.980;2022-09-27T01:04:00;12.40;99.90
29201;DHT22;16244;51.956;12.980;2022-09-27T01:06:31;12.40;99.90
29201;DHT22;16244;51.956;12.980;2022-09-27T01:08:58;12.40;99.90
29201;DHT22;16244;51.956;12.980;2022-09-27T01:11:34;12.40;99.90
29201;DHT22;16244;51.956;12.980;2022-09-27T01:14:14;12.40;99.90
29201;DHT22;16244;51.956;12.980;2022-09-27T01:16:49;12.40;99.90
29201;DHT22;16244;51.956;12.980;2022-09-27T01:19:50;12.40;99.90
29201;DHT22;16244;51.956;12.980;2022-09-27T01:22:26;12.40;99.90
29201;DHT22;16244;51.956;12.980;2022-09-27T01:25:07;12.40;99.90
29201;DHT22;16244;51.956;12.980;2022-09-27T01:30:59;12.40;99.90
29201;DHT22;16244;51.956;12.980;2022-09-27T01:33:39;12.40;99.90
29201;DHT22;16244;51.956;12.980;2022-09-27T01:36:18;12.40;99.90
29201;DHT22;16244;51.956;12.980;2022-09-27T01:39:07;12.40;99.90
29201;DHT22;16244;51.956;12.980;2022-09-27T01:41:37;12.40;99.90
29201;DHT22;16244;51.956;12.980;2022-09-27T01:44:12;12.30;99.90
29201;DHT22;16244;51.956;12.980;2022-09-27T01:46:47;12.30;99.90
29201;DHT22;16244;51.956;12.980;2022-09-27T01:49:25;12.30;99.90
29201;DHT22;16244;51.956;12.980;2022-09-27T01:51:56;12.30;99.90
29201;DHT22;16244;51.956;12.980;2022-09-27T01:54:30;12.20;99.90
29201;DHT22;16244;51.956;12.980;2022-09-27T01:56:59;12.20;99.90
29201;DHT22;16244;51.956;12.980;2022-09-27T01:59:30;12.10;99.90
29201;DHT22;16244;51.956;12.980;2022-09-27T02:02:05;12.10;99.90
29201;DHT22;16244;51.956;12.980;2022-09-27T02:04:35;12.10;99.90
29201;DHT22;16244;51.956;12.980;2022-09-27T02:07:09;12.00;99.90
29201;DHT22;16244;51.956;12.980;2022-09-27T02:09:39;12.10;99.90
29201;DHT22;16244;51.956;12.980;2022-09-27T02:12:12;12.10;99.90
29201;DHT22;16244;51.956;12.980;2022-09-27T02:14:43;12.10;99.90
29201;DHT22;16244;51.956;12.980;2022-09-27T02:17:20;12.00;99.90
29201;DHT22;16244;51.956;12.980;2022-09-27T02:19:53;12.00;99.90
29201;DHT22;16244;51.956;12.980;2022-09-27T02:22:29;11.90;99.90
29201;DHT22;16244;51.956;12.980;2022-09-27T02:25:01;11.90;99.90
29201;DHT22;16244;51.956;12.980;2022-09-27T02:27:34;11.90;99.90
29201;DHT22;16244;51.956;12.980;2022-09-27T02:30:06;11.90;99.90
29201;DHT22;16244;51.956;12.980;2022-09-27T02:32:35;11.80;99.90
29201;DHT22;16244;51.956;12.980;2022-09-27T02:35:06;11.80;99.90
29201;DHT22;16244;51.956;12.980;2022-09-27T02:37:35;11.70;99.90
29201;DHT22;16244;51.956;12.980;2022-09-27T02:40:02;11.60;99.90
29201;DHT22;16244;51.956;12.980;2022-09-27T02:42:31;11.60;99.90
29201;DHT22;16244;51.956;12.980;2022-09-27T02:44:59;11.50;99.90
29201;DHT22;16244;51.956;12.980;2022-09-27T02:47:48;11.50;99.90
29201;DHT22;16244;51.956;12.980;2022-09-27T02:50:35;11.50;99.90
29201;DHT22;16244;51.956;12.980;2022-09-27T02:53:14;11.50;99.90
29201;DHT22;16244;51.956;12.980;2022-09-27T02:55:50;11.50;99.90
29201;DHT22;16244;51.956;12.980;2022-09-27T02:58:25;11.50;99.90
29201;DHT22;16244;51.956;12.980;2022-09-27T03:01:01;11.50;99.90
29201;DHT22;16244;51.956;12.980;2022-09-27T03:03:36;11.40;99.90
29201;DHT22;16244;51.956;12.980;2022-09-27T03:06:07;11.40;99.90
29201;DHT22;16244;51.956;12.980;2022-09-27T03:08:36;11.40;99.90
29201;DHT22;16244;51.956;12.980;2022-09-27T03:11:03;11.50;99.90
29201;DHT22;16244;51.956;12.980;2022-09-27T03:13:31;11.40;99.90
29201;DHT22;16244;51.956;12.980;2022-09-27T03:15:59;11.40;99.90
29201;DHT22;16244;51.956;12.980;2022-09-27T03:18:26;11.40;99.90
29201;DHT22;16244;51.956;12.980;2022-09-27T03:20:55;11.40;99.90
29201;DHT22;16244;51.956;12.980;2022-09-27T03:23:22;11.40;99.90
29201;DHT22;16244;51.956;12.980;2022-09-27T03:25:50;11.40;99.90
29201;DHT22;16244;51.956;12.980;2022-09-27T03:28:17;11.40;99.90
29201;DHT22;16244;51.956;12.980;2022-09-27T03:30:45;11.40;99.90
29201;DHT22;16244;51.956;12.980;2022-09-27T03:33:12;11.40;99.90
29201;DHT22;16244;51.956;12.980;2022-09-27T03:35:40;11.40;99.90
29201;DHT22;16244;51.956;12.980;2022-09-27T03:38:09;11.30;99.90
29201;DHT22;16244;51.956;12.980;2022-09-27T03:40:36;11.30;99.90
29201;DHT22;16244;51.956;12.980;2022-09-27T03:43:04;11.30;99.90
29201;DHT22;16244;51.956;12.980;2022-09-27T03:45:31;11.30;99.90
29201;DHT22;16244;51.956;12.980;2022-09-27T03:47:58;11.30;99.90
29201;DHT22;16244;51.956;12.980;2022-09-27T03:50:25;11.30;99.90
29201;DHT22;16244;51.956;12.980;2022-09-27T03:52:52;11.30;99.90
29201;DHT22;16244;51.956;12.980;2022-09-27T03:55:21;11.30;99.90
29201;DHT22;16244;51.956;12.980;2022-09-27T03:57:57;11.30;99.90
29201;DHT22;16244;51.956;12.980;2022-09-27T04:00:37;11.30;99.90
29201;DHT22;16244;51.956;12.980;2022-09-27T04:03:12;11.40;99.90
29201;DHT22;16244;51.956;12.980;2022-09-27T04:05:49;11.30;99.90
29201;DHT22;16244;51.956;12.980;2022-09-27T04:08:26;11.30;99.90
29201;DHT22;16244;51.956;12.980;2022-09-27T04:10:57;11.30;99.90
29201;DHT22;16244;51.956;12.980;2022-09-27T04:13:26;11.30;99.90
29201;DHT22;16244;51.956;12.980;2022-09-27T04:15:54;11.20;99.90
29201;DHT22;16244;51.956;12.980;2022-09-27T04:18:22;11.20;99.90
29201;DHT22;16244;51.956;12.980;2022-09-27T04:20:53;11.20;99.90
29201;DHT22;16244;51.956;12.980;2022-09-27T04:23:23;11.20;99.90
29201;DHT22;16244;51.956;12.980;2022-09-27T04:25:51;11.20;99.90
29201;DHT22;16244;51.956;12.980;2022-09-27T04:28:24;11.20;99.90
29201;DHT22;16244;51.956;12.980;2022-09-27T04:30:52;11.20;99.90
29201;DHT22;16244;51.956;12.980;2022-09-27T04:33:21;11.20;99.90
29201;DHT22;16244;51.956;12.980;2022-09-27T04:36:01;11.20;99.90
29201;DHT22;16244;51.956;12.980;2022-09-27T04:38:46;11.20;99.90
29201;DHT22;16244;51.956;12.980;2022-09-27T04:41:14;11.20;99.90
29201;DHT22;16244;51.956;12.980;2022-09-27T04:43:46;11.10;99.90
29201;DHT22;16244;51.956;12.980;2022-09-27T04:46:15;11.10;99.90
29201;DHT22;16244;51.956;12.980;2022-09-27T04:48:43;11.10;99.90
29201;DHT22;16244;51.956;12.980;2022-09-27T04:51:22;11.20;99.90
29201;DHT22;16244;51.956;12.980;2022-09-27T04:53:55;11.10;99.90
29201;DHT22;16244;51.956;12.980;2022-09-27T04:56:23;11.20;99.90
29201;DHT22;16244;51.956;12.980;2022-09-27T04:58:53;11.10;99.90
29201;DHT22;16244;51.956;12.980;2022-09-27T05:01:20;11.10;99.90
29201;DHT22;16244;51.956;12.980;2022-09-27T05:03:49;11.10;99.90
29201;DHT22;16244;51.956;12.980;2022-09-27T05:06:19;11.10;99.90
29201;DHT22;16244;51.956;12.980;2022-09-27T05:08:46;11.10;99.90
29201;DHT22;16244;51.956;12.980;2022-09-27T05:11:14;11.00;99.90
29201;DHT22;16244;51.956;12.980;2022-09-27T05:13:42;11.00;99.90
29201;DHT22;16244;51.956;12.980;2022-09-27T05:16:12;11.00;99.90
29201;DHT22;16244;51.956;12.980;2022-09-27T05:18:39;10.90;99.90
29201;DHT22;16244;51.956;12.980;2022-09-27T05:21:07;10.90;99.90
29201;DHT22;16244;51.956;12.980;2022-09-27T05:23:36;10.90;99.90
29201;DHT22;16244;51.956;12.980;2022-09-27T05:26:03;10.90;99.90
29201;DHT22;16244;51.956;12.980;2022-09-27T05:28:32;10.90;99.90
29201;DHT22;16244;51.956;12.980;2022-09-27T05:31:00;10.90;99.90
29201;DHT22;16244;51.956;12.980;2022-09-27T05:33:31;10.90;99.90
29201;DHT22;16244;51.956;12.980;2022-09-27T05:36:00;10.90;99.90
29201;DHT22;16244;51.956;12.980;2022-09-27T05:38:35;10.90;99.90
29201;DHT22;16244;51.956;12.980;2022-09-27T05:41:04;10.90;99.90
29201;DHT22;16244;51.956;12.980;2022-09-27T05:43:32;11.00;99.90
29201;DHT22;16244;51.956;12.980;2022-09-27T05:46:00;11.00;99.90
29201;DHT22;16244;51.956;12.980;2022-09-27T05:48:28;11.00;99.90
29201;DHT22;16244;51.956;12.980;2022-09-27T05:50:57;11.00;99.90
29201;DHT22;16244;51.956;12.980;2022-09-27T05:53:24;11.00;99.90
29201;DHT22;16244;51.956;12.980;2022-09-27T05:55:52;11.00;99.90
29201;DHT22;16244;51.956;12.980;2022-09-27T05:58:22;11.00;99.90
29201;DHT22;16244;51.956;12.980;2022-09-27T06:00:56;11.00;99.90
29201;DHT22;16244;51.956;12.980;2022-09-27T06:03:40;11.00;99.90
29201;DHT22;16244;51.956;12.980;2022-09-27T06:06:12;11.00;99.90
29201;DHT22;16244;51.956;12.980;2022-09-27T06:08:43;11.00;99.90
29201;DHT22;16244;51.956;12.980;2022-09-27T06:11:12;11.00;99.90
29201;DHT22;16244;51.956;12.980;2022-09-27T06:13:39;11.00;99.90
29201;DHT22;16244;51.956;12.980;2022-09-27T06:16:09;11.00;99.90
29201;DHT22;16244;51.956;12.980;2022-09-27T06:18:38;11.00;99.90
29201;DHT22;16244;51.956;12.980;2022-09-27T06:21:06;11.00;99.90
29201;DHT22;16244;51.956;12.980;2022-09-27T06:23:34;11.00;99.90
29201;DHT22;16244;51.956;12.980;2022-09-27T06:26:03;11.10;99.90
29201;DHT22;16244;51.956;12.980;2022-09-27T06:28:32;11.00;99.90
29201;DHT22;16244;51.956;12.980;2022-09-27T06:31:05;11.00;99.90
29201;DHT22;16244;51.956;12.980;2022-09-27T06:33:34;11.10;99.90
29201;DHT22;16244;51.956;12.980;2022-09-27T06:36:03;11.20;99.90
29201;DHT22;16244;51.956;12.980;2022-09-27T06:38:34;11.20;99.90
29201;DHT22;16244;51.956;12.980;2022-09-27T06:41:12;11.20;99.90
29201;DHT22;16244;51.956;12.980;2022-09-27T06:43:48;11.20;99.90
29201;DHT22;16244;51.956;12.980;2022-09-27T06:46:17;11.30;99.90
29201;DHT22;16244;51.956;12.980;2022-09-27T06:48:46;11.30;99.90
29201;DHT22;16244;51.956;12.980;2022-09-27T06:51:14;11.40;99.90
29201;DHT22;16244;51.956;12.980;2022-09-27T06:53:43;11.50;99.90
29201;DHT22;16244;51.956;12.980;2022-09-27T06:56:11;11.50;99.90
29201;DHT22;16244;51.956;12.980;2022-09-27T06:58:39;11.50;99.90
29201;DHT22;16244;51.956;12.980;2022-09-27T07:01:27;11.50;99.90
29201;DHT22;16244;51.956;12.980;2022-09-27T07:03:54;11.60;99.90
29201;DHT22;16244;51.956;12.980;2022-09-27T07:06:24;11.60;99.90
29201;DHT22;16244;51.956;12.980;2022-09-27T07:08:55;11.60;99.90
29201;DHT22;16244;51.956;12.980;2022-09-27T07:11:23;11.60;99.90
29201;DHT22;16244;51.956;12.980;2022-09-27T07:13:51;11.70;99.90
29201;DHT22;16244;51.956;12.980;2022-09-27T07:16:19;11.70;99.90
29201;DHT22;16244;51.956;12.980;2022-09-27T07:18:50;11.70;99.90
29201;DHT22;16244;51.956;12.980;2022-09-27T07:21:18;11.70;99.90
29201;DHT22;16244;51.956;12.980;2022-09-27T07:23:46;11.70;99.90
29201;DHT22;16244;51.956;12.980;2022-09-27T07:26:15;11.70;99.90
29201;DHT22;16244;51.956;12.980;2022-09-27T07:28:44;11.70;99.90
29201;DHT22;16244;51.956;12.980;2022-09-27T07:31:12;11.70;99.90
29201;DHT22;16244;51.956;12.980;2022-09-27T07:33:39;11.70;99.90
29201;DHT22;16244;51.956;12.980;2022-09-27T07:36:07;11.80;99.90
29201;DHT22;16244;51.956;12.980;2022-09-27T07:38:35;11.90;99.90
29201;DHT22;16244;51.956;12.980;2022-09-27T07:41:06;11.90;99.90
29201;DHT22;16244;51.956;12.980;2022-09-27T07:43:36;12.00;99.90
29201;DHT22;16244;51.956;12.980;2022-09-27T07:46:04;12.10;99.90
29201;DHT22;16244;51.956;12.980;2022-09-27T07:48:31;12.10;99.90
29201;DHT22;16244;51.956;12.980;2022-09-27T07:50:59;12.10;99.90
29201;DHT22;16244;51.956;12.980;2022-09-27T07:53:26;12.10;99.90
29201;DHT22;16244;51.956;12.980;2022-09-27T07:55:53;12.20;99.90
29201;DHT22;16244;51.956;12.980;2022-09-27T07:58:22;12.20;99.90
29201;DHT22;16244;51.956;12.980;2022-09-27T08:00:51;12.30;99.90
29201;DHT22;16244;51.956;12.980;2022-09-27T08:03:21;12.30;99.90
29201;DHT22;16244;51.956;12.980;2022-09-27T08:05:49;12.40;99.90
29201;DHT22;16244;51.956;12.980;2022-09-27T08:08:16;12.40;99.90
29201;DHT22;16244;51.956;12.980;2022-09-27T08:10:43;12.50;99.90
29201;DHT22;16244;51.956;12.980;2022-09-27T08:13:12;12.50;99.90
29201;DHT22;16244;51.956;12.980;2022-09-27T08:15:39;12.50;99.90
29201;DHT22;16244;51.956;12.980;2022-09-27T08:18:08;12.50;99.90
29201;DHT22;16244;51.956;12.980;2022-09-27T08:20:35;12.50;99.90
29201;DHT22;16244;51.956;12.980;2022-09-27T08:23:03;12.50;99.90
29201;DHT22;16244;51.956;12.980;2022-09-27T08:25:30;12.50;99.90
29201;DHT22;16244;51.956;12.980;2022-09-27T08:27:59;12.50;99.90
29201;DHT22;16244;51.956;12.980;2022-09-27T08:30:28;12.40;99.90
29201;DHT22;16244;51.956;12.980;2022-09-27T08:32:59;12.40;99.90
29201;DHT22;16244;51.956;12.980;2022-09-27T08:35:31;12.40;99.90
29201;DHT22;16244;51.956;12.980;2022-09-27T08:38:00;12.40;99.90
29201;DHT22;16244;51.956;12.980;2022-09-27T08:40:37;12.50;99.90
29201;DHT22;16244;51.956;12.980;2022-09-27T08:43:17;12.50;99.90
29201;DHT22;16244;51.956;12.980;2022-09-27T08:45:57;12.60;99.90
29201;DHT22;16244;51.956;12.980;2022-09-27T08:48:27;12.60;99.90
29201;DHT22;16244;51.956;12.980;2022-09-27T08:50:56;12.60;99.90
29201;DHT22;16244;51.956;12.980;2022-09-27T08:53:26;12.70;99.90
29201;DHT22;16244;51.956;12.980;2022-09-27T08:55:56;12.80;99.90
29201;DHT22;16244;51.956;12.980;2022-09-27T08:58:27;12.90;99.90
29201;DHT22;16244;51.956;12.980;2022-09-27T09:00:59;12.90;99.90
29201;DHT22;16244;51.956;12.980;2022-09-27T09:03:30;12.90;99.90
29201;DHT22;16244;51.956;12.980;2022-09-27T09:06:08;12.80;99.90
29201;DHT22;16244;51.956;12.980;2022-09-27T09:08:44;12.80;99.90
29201;DHT22;16244;51.956;12.980;2022-09-27T09:11:20;12.80;99.90
29201;DHT22;16244;51.956;12.980;2022-09-27T09:14:31;12.90;99.90
29201;DHT22;16244;51.956;12.980;2022-09-27T09:17:11;13.00;99.90
29201;DHT22;16244;51.956;12.980;2022-09-27T09:19:56;13.00;99.90
29201;DHT22;16244;51.956;12.980;2022-09-27T09:22:38;13.10;99.90
29201;DHT22;16244;51.956;12.980;2022-09-27T09:25:22;13.30;99.90
29201;DHT22;16244;51.956;12.980;2022-09-27T09:28:01;13.40;99.90
29201;DHT22;16244;51.956;12.980;2022-09-27T09:30:38;13.50;99.90
29201;DHT22;16244;51.956;12.980;2022-09-27T09:33:15;13.50;99.90
29201;DHT22;16244;51.956;12.980;2022-09-27T09:35:47;13.70;99.90
29201;DHT22;16244;51.956;12.980;2022-09-27T09:38:20;13.70;99.90
29201;DHT22;16244;51.956;12.980;2022-09-27T09:40:54;13.80;99.90
29201;DHT22;16244;51.956;12.980;2022-09-27T09:43:28;14.10;99.90
29201;DHT22;16244;51.956;12.980;2022-09-27T09:46:02;14.30;99.90
29201;DHT22;16244;51.956;12.980;2022-09-27T09:48:37;14.40;99.90
29201;DHT22;16244;51.956;12.980;2022-09-27T09:51:12;14.50;99.90
29201;DHT22;16244;51.956;12.980;2022-09-27T09:53:48;14.50;99.90
29201;DHT22;16244;51.956;12.980;2022-09-27T09:59:18;14.60;99.90
29201;DHT22;16244;51.956;12.980;2022-09-27T10:01:46;14.50;99.90
29201;DHT22;16244;51.956;12.980;2022-09-27T10:04:18;14.40;99.90
29201;DHT22;16244;51.956;12.980;2022-09-27T10:06:46;14.40;99.90
29201;DHT22;16244;51.956;12.980;2022-09-27T10:09:16;14.20;99.90
29201;DHT22;16244;51.956;12.980;2022-09-27T10:11:45;14.10;99.90
29201;DHT22;16244;51.956;12.980;2022-09-27T10:14:16;14.00;99.90
29201;DHT22;16244;51.956;12.980;2022-09-27T10:16:45;13.90;99.90
29201;DHT22;16244;51.956;12.980;2022-09-27T10:19:16;13.70;99.90
29201;DHT22;16244;51.956;12.980;2022-09-27T10:21:45;13.50;99.90
29201;DHT22;16244;51.956;12.980;2022-09-27T10:24:16;13.40;99.90
29201;DHT22;16244;51.956;12.980;2022-09-27T10:26:45;13.20;99.90
29201;DHT22;16244;51.956;12.980;2022-09-27T10:29:19;13.10;99.90
29201;DHT22;16244;51.956;12.980;2022-09-27T10:31:48;13.10;99.90
29201;DHT22;16244;51.956;12.980;2022-09-27T10:34:23;13.00;99.90
29201;DHT22;16244;51.956;12.980;2022-09-27T10:37:13;12.90;99.90
29201;DHT22;16244;51.956;12.980;2022-09-27T10:39:44;12.90;99.90
29201;DHT22;16244;51.956;12.980;2022-09-27T10:42:20;13.00;99.90
29201;DHT22;16244;51.956;12.980;2022-09-27T10:44:48;13.00;99.90
29201;DHT22;16244;51.956;12.980;2022-09-27T10:47:18;13.00;99.90
29201;DHT22;16244;51.956;12.980;2022-09-27T10:49:48;12.80;99.90
29201;DHT22;16244;51.956;12.980;2022-09-27T10:52:18;12.60;99.90
29201;DHT22;16244;51.956;12.980;2022-09-27T10:54:55;12.40;99.90
29201;DHT22;16244;51.956;12.980;2022-09-27T10:57:24;12.10;99.90
29201;DHT22;16244;51.956;12.980;2022-09-27T10:59:55;11.90;99.90
29201;DHT22;16244;51.956;12.980;2022-09-27T11:02:26;11.80;99.90
29201;DHT22;16244;51.956;12.980;2022-09-27T11:05:04;11.70;99.90
29201;DHT22;16244;51.956;12.980;2022-09-27T11:07:34;11.70;99.90
29201;DHT22;16244;51.956;12.980;2022-09-27T11:10:20;11.70;99.90
29201;DHT22;16244;51.956;12.980;2022-09-27T11:13:11;11.80;99.90
29201;DHT22;16244;51.956;12.980;2022-09-27T11:15:50;11.90;99.90
29201;DHT22;16244;51.956;12.980;2022-09-27T11:18:25;11.90;99.90
29201;DHT22;16244;51.956;12.980;2022-09-27T11:21:03;11.90;99.90
29201;DHT22;16244;51.956;12.980;2022-09-27T11:23:42;12.00;99.90
29201;DHT22;16244;51.956;12.980;2022-09-27T11:26:25;12.10;99.90
29201;DHT22;16244;51.956;12.980;2022-09-27T11:29:00;12.30;99.90
29201;DHT22;16244;51.956;12.980;2022-09-27T11:31:40;12.60;99.90
29201;DHT22;16244;51.956;12.980;2022-09-27T11:34:23;12.90;99.90
29201;DHT22;16244;51.956;12.980;2022-09-27T11:37:05;13.20;99.90
29201;DHT22;16244;51.956;12.980;2022-09-27T11:39:40;13.40;99.90
29201;DHT22;16244;51.956;12.980;2022-09-27T11:42:24;13.50;99.90
29201;DHT22;16244;51.956;12.980;2022-09-27T11:45:03;13.70;99.90
29201;DHT22;16244;51.956;12.980;2022-09-27T11:47:43;13.70;99.90
29201;DHT22;16244;51.956;12.980;2022-09-27T11:50:49;13.80;99.90
29201;DHT22;16244;51.956;12.980;2022-09-27T11:53:30;13.80;99.90
29201;DHT22;16244;51.956;12.980;2022-09-27T11:56:07;13.90;99.90
29201;DHT22;16244;51.956;12.980;2022-09-27T11:58:48;13.90;99.90
29201;DHT22;16244;51.956;12.980;2022-09-27T12:01:25;13.90;99.90
29201;DHT22;16244;51.956;12.980;2022-09-27T12:04:18;13.80;99.90
29201;DHT22;16244;51.956;12.980;2022-09-27T12:06:54;13.60;99.90
29201;DHT22;16244;51.956;12.980;2022-09-27T12:09:28;13.60;99.90
29201;DHT22;16244;51.956;12.980;2022-09-27T12:11:58;13.60;99.90
29201;DHT22;16244;51.956;12.980;2022-09-27T12:14:34;13.50;99.90
29201;DHT22;16244;51.956;12.980;2022-09-27T12:17:04;13.40;99.90
29201;DHT22;16244;51.956;12.980;2022-09-27T12:19:35;13.10;99.90
29201;DHT22;16244;51.956;12.980;2022-09-27T12:22:06;13.00;99.90
29201;DHT22;16244;51.956;12.980;2022-09-27T12:24:37;12.90;99.90
29201;DHT22;16244;51.956;12.980;2022-09-27T12:27:08;12.80;99.90
29201;DHT22;16244;51.956;12.980;2022-09-27T12:29:38;12.90;99.90
29201;DHT22;16244;51.956;12.980;2022-09-27T12:32:14;12.90;99.90
29201;DHT22;16244;51.956;12.980;2022-09-27T12:34:46;12.90;99.90
29201;DHT22;16244;51.956;12.980;2022-09-27T12:37:19;12.90;99.90
29201;DHT22;16244;51.956;12.980;2022-09-27T12:39:52;13.10;99.90
29201;DHT22;16244;51.956;12.980;2022-09-27T12:42:24;13.20;99.90
29201;DHT22;16244;51.956;12.980;2022-09-27T12:44:52;13.30;99.90
29201;DHT22;16244;51.956;12.980;2022-09-27T12:47:35;13.40;99.90
29201;DHT22;16244;51.956;12.980;2022-09-27T12:50:12;13.30;99.90
29201;DHT22;16244;51.956;12.980;2022-09-27T12:52:44;13.30;99.90
29201;DHT22;16244;51.956;12.980;2022-09-27T12:55:34;13.40;99.90
29201;DHT22;16244;51.956;12.980;2022-09-27T12:58:29;13.50;99.90
29201;DHT22;16244;51.956;12.980;2022-09-27T13:01:11;13.50;99.90
29201;DHT22;16244;51.956;12.980;2022-09-27T13:04:02;13.50;99.90
29201;DHT22;16244;51.956;12.980;2022-09-27T13:06:47;13.50;99.90
29201;DHT22;16244;51.956;12.980;2022-09-27T13:09:26;13.50;99.90
29201;DHT22;16244;51.956;12.980;2022-09-27T13:12:00;13.60;99.90
29201;DHT22;16244;51.956;12.980;2022-09-27T13:14:31;13.50;99.90
29201;DHT22;16244;51.956;12.980;2022-09-27T13:17:00;13.50;99.90
29201;DHT22;16244;51.956;12.980;2022-09-27T13:19:41;13.40;99.90
29201;DHT22;16244;51.956;12.980;2022-09-27T13:22:34;13.40;99.90
29201;DHT22;16244;51.956;12.980;2022-09-27T13:25:02;13.50;99.90
29201;DHT22;16244;51.956;12.980;2022-09-27T13:27:49;13.60;99.90
29201;DHT22;16244;51.956;12.980;2022-09-27T13:30:47;13.70;99.90
29201;DHT22;16244;51.956;12.980;2022-09-27T13:33:40;13.80;99.90
29201;DHT22;16244;51.956;12.980;2022-09-27T13:36:18;13.80;99.90
29201;DHT22;16244;51.956;12.980;2022-09-27T13:39:03;14.00;99.90
29201;DHT22;16244;51.956;12.980;2022-09-27T13:41:40;14.00;99.90
29201;DHT22;16244;51.956;12.980;2022-09-27T13:44:22;13.90;99.90
29201;DHT22;16244;51.956;12.980;2022-09-27T13:46:55;13.80;99.90
29201;DHT22;16244;51.956;12.980;2022-09-27T13:49:30;13.60;99.90
29201;DHT22;16244;51.956;12.980;2022-09-27T13:52:01;13.50;99.90
29201;DHT22;16244;51.956;12.980;2022-09-27T13:54:38;13.40;99.90
29201;DHT22;16244;51.956;12.980;2022-09-27T13:57:40;13.40;99.90
29201;DHT22;16244;51.956;12.980;2022-09-27T14:00:11;13.40;99.90
29201;DHT22;16244;51.956;12.980;2022-09-27T14:02:49;13.40;99.90
29201;DHT22;16244;51.956;12.980;2022-09-27T14:05:22;13.30;99.90
29201;DHT22;16244;51.956;12.980;2022-09-27T14:07:51;13.20;99.90
29201;DHT22;16244;51.956;12.980;2022-09-27T14:10:20;13.20;99.90
29201;DHT22;16244;51.956;12.980;2022-09-27T14:12:51;13.10;99.90
29201;DHT22;16244;51.956;12.980;2022-09-27T14:15:22;12.90;99.90
29201;DHT22;16244;51.956;12.980;2022-09-27T14:17:50;12.80;99.90
29201;DHT22;16244;51.956;12.980;2022-09-27T14:20:34;12.80;99.90
29201;DHT22;16244;51.956;12.980;2022-09-27T14:23:02;12.80;99.90
29201;DHT22;16244;51.956;12.980;2022-09-27T14:25:29;12.80;99.90
29201;DHT22;16244;51.956;12.980;2022-09-27T14:27:57;12.80;99.90
29201;DHT22;16244;51.956;12.980;2022-09-27T14:30:27;12.80;99.90
29201;DHT22;16244;51.956;12.980;2022-09-27T14:32:56;12.80;99.90
29201;DHT22;16244;51.956;12.980;2022-09-27T14:35:28;12.80;99.90
29201;DHT22;16244;51.956;12.980;2022-09-27T14:38:15;12.80;99.90
29201;DHT22;16244;51.956;12.980;2022-09-27T14:40:53;12.80;99.90
29201;DHT22;16244;51.956;12.980;2022-09-27T14:43:21;12.90;99.90
29201;DHT22;16244;51.956;12.980;2022-09-27T14:45:50;12.90;99.90
29201;DHT22;16244;51.956;12.980;2022-09-27T14:48:21;12.90;99.90
29201;DHT22;16244;51.956;12.980;2022-09-27T14:50:58;13.00;99.90
29201;DHT22;16244;51.956;12.980;2022-09-27T14:53:30;13.00;99.90
29201;DHT22;16244;51.956;12.980;2022-09-27T14:55:59;13.10;99.90
29201;DHT22;16244;51.956;12.980;2022-09-27T14:58:27;13.30;99.90
29201;DHT22;16244;51.956;12.980;2022-09-27T15:00:55;13.30;99.90
29201;DHT22;16244;51.956;12.980;2022-09-27T15:03:28;13.40;99.90
29201;DHT22;16244;51.956;12.980;2022-09-27T15:05:58;13.30;99.90
29201;DHT22;16244;51.956;12.980;2022-09-27T15:08:27;13.40;99.90
29201;DHT22;16244;51.956;12.980;2022-09-27T15:10:58;13.40;99.90
29201;DHT22;16244;51.956;12.980;2022-09-27T15:13:27;13.50;99.90
29201;DHT22;16244;51.956;12.980;2022-09-27T15:15:55;13.50;99.90
29201;DHT22;16244;51.956;12.980;2022-09-27T15:18:38;13.50;99.90
29201;DHT22;16244;51.956;12.980;2022-09-27T15:21:10;13.50;99.90
29201;DHT22;16244;51.956;12.980;2022-09-27T15:23:39;13.50;99.90
29201;DHT22;16244;51.956;12.980;2022-09-27T15:26:10;13.60;99.90
29201;DHT22;16244;51.956;12.980;2022-09-27T15:28:42;13.60;99.90
29201;DHT22;16244;51.956;12.980;2022-09-27T15:31:10;13.60;99.90
29201;DHT22;16244;51.956;12.980;2022-09-27T15:33:38;13.60;99.90
29201;DHT22;16244;51.956;12.980;2022-09-27T15:36:09;13.60;99.90
29201;DHT22;16244;51.956;12.980;2022-09-27T15:38:37;13.60;99.90
29201;DHT22;16244;51.956;12.980;2022-09-27T15:41:10;13.60;99.90
29201;DHT22;16244;51.956;12.980;2022-09-27T15:43:41;13.60;99.90
29201;DHT22;16244;51.956;12.980;2022-09-27T15:46:33;13.70;99.90
29201;DHT22;16244;51.956;12.980;2022-09-27T15:49:20;13.60;99.90
29201;DHT22;16244;51.956;12.980;2022-09-27T15:51:50;13.50;99.90
29201;DHT22;16244;51.956;12.980;2022-09-27T15:54:18;13.40;99.90
29201;DHT22;16244;51.956;12.980;2022-09-27T15:56:46;13.40;99.90